Lynchburg, Missouri
Current Conditions -  °F | °C
As of 7:58 PM on Wednesday 22 Oct 2014 (Local Time) from KTBN Reporting Station
Clear Clear  
Wind Chill: 54°   Ceiling: Unl
Heat Index: 54°   Visibility: 10mi
Dew Point: 45°   Wind: 6mph
Humidity: 71%   Direction: 150°SSE
Pressure: 30.19"   Gusts: NA
Location:  37.49°N, 92.29°W
Report Text: KTBN 230058Z AUTO 15005KT 10SM CLR 12/07 A3019 RMK AO2 SLP228 T01240073
Loading
Personal Weather Stations






























Interactive Weather Map
Tropical Storm Tracking
New forecast layout! Learn more

10-Day Weather Forecast

Advertisements
Track Severe Weather on mobile